Time;durP1;ratioP1;P1;durP2;ratioP2;P2;SDS_P1;SDS_P2;PMS_P1;PMS_P2;Temp;Humidity;BMP_temperature;BMP_pressure;BME280_temperature;BME280_humidity;BME280_pressure;Samples;Min_cycle;Max_cycle;Signal;HPM_P1;HPM_P2
2023/07/22 00:00:18;;;;;;;19.67;10.43;;;14.70;40.90;;;;;;5052756;28;20746;-73
2023/07/22 00:02:43;;;;;;;17.67;11.27;;;14.70;40.80;;;;;;5052943;28;20401;-72
2023/07/22 00:05:12;;;;;;;20.40;11.45;;;14.70;40.60;;;;;;5052790;28;20382;-73
2023/07/22 00:07:40;;;;;;;18.13;11.48;;;14.70;40.70;;;;;;5034873;28;20716;-74
2023/07/22 00:10:07;;;;;;;18.85;10.35;;;14.70;40.80;;;;;;5052540;28;20400;-73
2023/07/22 00:12:34;;;;;;;17.25;11.55;;;14.80;40.10;;;;;;5052172;28;20398;-72
2023/07/22 00:14:59;;;;;;;20.88;10.65;;;14.80;40.30;;;;;;5052552;28;20404;-73
2023/07/22 00:17:25;;;;;;;18.63;11.23;;;14.80;40.60;;;;;;5052014;28;20480;-73
2023/07/22 00:19:51;;;;;;;19.30;11.70;;;14.80;40.10;;;;;;5052454;28;20456;-73
2023/07/22 00:22:16;;;;;;;15.00;10.48;;;14.80;40.30;;;;;;5052106;28;20397;-73
2023/07/22 00:24:42;;;;;;;20.13;10.90;;;14.90;40.10;;;;;;5052371;28;20870;-73
2023/07/22 00:27:08;;;;;;;18.13;11.10;;;15.00;39.70;;;;;;5052264;28;20750;-74
2023/07/22 00:29:34;;;;;;;18.52;10.68;;;15.00;39.20;;;;;;5052883;28;20382;-73
2023/07/22 00:32:00;;;;;;;17.00;10.70;;;15.00;39.50;;;;;;5052622;28;20389;-73
2023/07/22 00:34:26;;;;;;;20.70;12.37;;;15.10;39.30;;;;;;5052088;28;20377;-73
2023/07/22 00:36:52;;;;;;;18.75;11.50;;;15.10;39.20;;;;;;5051981;28;20385;-72
2023/07/22 00:39:17;;;;;;;16.70;11.10;;;15.10;39.60;;;;;;5051630;28;20378;-73
2023/07/22 00:41:44;;;;;;;16.88;11.48;;;15.10;39.30;;;;;;5051960;28;20405;-73
2023/07/22 00:44:12;;;;;;;17.73;11.43;;;15.10;39.00;;;;;;5052224;28;20395;-73
2023/07/22 00:46:38;;;;;;;18.23;11.40;;;15.10;39.10;;;;;;5052295;28;20419;-73
2023/07/22 00:49:06;;;;;;;19.30;11.70;;;15.10;39.30;;;;;;5034085;28;20773;-72
2023/07/22 00:51:32;;;;;;;18.75;11.77;;;15.20;39.20;;;;;;5051746;28;20454;-72
2023/07/22 00:53:57;;;;;;;17.37;11.50;;;15.20;39.20;;;;;;5052032;28;20385;-72
2023/07/22 00:56:23;;;;;;;20.60;11.05;;;15.20;39.40;;;;;;5051727;28;20754;-72
2023/07/22 00:58:50;;;;;;;18.77;11.25;;;15.20;39.10;;;;;;5051837;28;20934;-72
2023/07/22 01:01:15;;;;;;;19.43;11.90;;;15.20;39.30;;;;;;5033654;28;20401;-72
2023/07/22 01:03:41;;;;;;;17.80;11.70;;;15.20;39.50;;;;;;5051706;28;20388;-71
2023/07/22 01:06:07;;;;;;;17.97;10.20;;;15.20;39.40;;;;;;5051964;28;20435;-72
2023/07/22 01:08:33;;;;;;;18.27;11.30;;;15.30;38.90;;;;;;5051247;28;20425;-72
2023/07/22 01:10:59;;;;;;;17.50;10.67;;;15.20;39.20;;;;;;5050908;28;20901;-71
2023/07/22 01:13:24;;;;;;;17.37;11.17;;;15.20;39.50;;;;;;5041152;28;20402;-70
2023/07/22 01:15:50;;;;;;;17.17;11.10;;;15.20;39.70;;;;;;5048565;28;20786;-70
2023/07/22 01:18:16;;;;;;;34.80;21.37;;;15.30;39.50;;;;;;5051243;28;20401;-71
2023/07/22 01:20:42;;;;;;;30.17;17.10;;;15.40;39.30;;;;;;5051503;28;20401;-71
2023/07/22 01:23:09;;;;;;;24.67;15.52;;;15.40;38.60;;;;;;5050945;28;20397;-71
2023/07/22 01:25:34;;;;;;;24.08;12.15;;;15.40;38.60;;;;;;5051563;28;20377;-72
2023/07/22 01:28:00;;;;;;;25.20;12.27;;;15.40;38.60;;;;;;5051168;28;20390;-72
2023/07/22 01:30:27;;;;;;;19.08;12.07;;;15.40;38.60;;;;;;5051531;28;20382;-72
2023/07/22 01:32:53;;;;;;;27.90;12.60;;;15.40;38.80;;;;;;5050398;28;20392;-72
2023/07/22 01:35:19;;;;;;;17.50;11.48;;;15.30;39.10;;;;;;5051252;28;20758;-73
2023/07/22 01:37:44;;;;;;;21.02;12.20;;;15.20;39.30;;;;;;5051104;28;20447;-73
2023/07/22 01:40:14;;;;;;;22.40;11.80;;;15.20;39.50;;;;;;5051163;28;20385;-73
2023/07/22 01:42:41;;;;;;;18.85;11.70;;;15.20;39.60;;;;;;5050762;28;20401;-73
2023/07/22 01:45:07;;;;;;;21.10;12.53;;;15.10;40.60;;;;;;5053240;28;20389;-73
2023/07/22 01:47:37;;;;;;;22.42;12.18;;;15.10;40.50;;;;;;5050783;28;20787;-72
2023/07/22 01:50:04;;;;;;;18.25;11.20;;;15.10;40.50;;;;;;5050116;28;20716;-72
2023/07/22 01:52:29;;;;;;;18.98;11.70;;;15.10;39.90;;;;;;5050652;28;20424;-72
2023/07/22 01:54:55;;;;;;;19.20;11.63;;;15.10;40.20;;;;;;5050845;28;20497;-72
2023/07/22 01:57:21;;;;;;;21.60;11.60;;;15.10;40.20;;;;;;5050483;28;20435;-72
2023/07/22 01:59:46;;;;;;;21.33;11.87;;;15.00;40.30;;;;;;5050570;28;20393;-72
2023/07/22 02:02:12;;;;;;;22.67;11.67;;;15.00;40.30;;;;;;5050181;28;20496;-72
2023/07/22 02:04:37;;;;;;;19.67;11.57;;;15.00;40.30;;;;;;5050406;28;20830;-72
2023/07/22 02:07:03;;;;;;;19.45;12.00;;;14.90;40.70;;;;;;5050799;28;20408;-72
2023/07/22 02:09:28;;;;;;;18.10;11.40;;;14.80;41.20;;;;;;5050812;28;20866;-72
2023/07/22 02:11:54;;;;;;;19.77;11.90;;;14.80;41.20;;;;;;5050654;28;20413;-72
2023/07/22 02:14:20;;;;;;;21.97;11.93;;;14.80;41.10;;;;;;5050559;28;20389;-72
2023/07/22 02:16:45;;;;;;;21.57;11.70;;;14.80;40.70;;;;;;5050907;28;20394;-72
2023/07/22 02:19:11;;;;;;;18.90;11.93;;;14.80;40.60;;;;;;5050724;28;20427;-73
2023/07/22 02:21:37;;;;;;;20.05;10.65;;;14.80;40.60;;;;;;5033211;28;20435;-72
2023/07/22 02:24:02;;;;;;;16.45;10.73;;;14.80;41.20;;;;;;5050904;28;20390;-72
2023/07/22 02:26:28;;;;;;;21.40;11.95;;;14.80;41.20;;;;;;5050648;28;20703;-72
2023/07/22 02:28:54;;;;;;;20.60;11.90;;;14.80;41.70;;;;;;5050569;28;20385;-72
2023/07/22 02:31:22;;;;;;;18.80;10.30;;;14.80;41.40;;;;;;5050334;28;20374;-73
2023/07/22 02:33:47;;;;;;;20.50;11.10;;;14.80;41.10;;;;;;5052060;28;20861;-72
2023/07/22 02:36:13;;;;;;;17.87;11.30;;;14.80;40.80;;;;;;5034568;28;20390;-73
2023/07/22 02:38:38;;;;;;;18.60;10.73;;;14.90;40.90;;;;;;5056966;28;20412;-72
2023/07/22 02:41:07;;;;;;;18.03;11.63;;;14.90;40.50;;;;;;5058020;28;20404;-71
2023/07/22 02:43:36;;;;;;;17.80;10.80;;;15.00;39.80;;;;;;5062193;28;20378;-71
2023/07/22 02:46:03;;;;;;;18.95;10.85;;;15.00;39.70;;;;;;5061404;28;20439;-72
2023/07/22 02:48:29;;;;;;;19.25;10.20;;;15.00;39.40;;;;;;5055232;28;20507;-72
2023/07/22 02:50:55;;;;;;;20.60;10.50;;;15.00;39.30;;;;;;5050269;28;20421;-71
2023/07/22 02:53:20;;;;;;;18.77;9.90;;;15.00;39.30;;;;;;5050621;28;20397;-71
2023/07/22 02:55:46;;;;;;;20.93;10.77;;;14.90;39.50;;;;;;5049938;28;20388;-72
2023/07/22 02:58:12;;;;;;;16.20;9.83;;;15.00;39.40;;;;;;5050574;28;20415;-72
2023/07/22 03:00:38;;;;;;;19.92;10.60;;;15.00;38.80;;;;;;5050375;28;20405;-72
2023/07/22 03:03:04;;;;;;;16.00;10.18;;;15.00;39.10;;;;;;5053573;28;20424;-72
2023/07/22 03:05:31;;;;;;;18.02;10.48;;;15.00;39.10;;;;;;5053793;28;20469;-73
2023/07/22 03:07:58;;;;;;;15.10;9.90;;;14.90;39.60;;;;;;5053972;28;20464;-72
2023/07/22 03:10:25;;;;;;;14.32;9.82;;;14.90;39.40;;;;;;5053782;28;20503;-72
2023/07/22 03:12:54;;;;;;;16.73;10.65;;;14.90;39.80;;;;;;5053367;28;20385;-72
2023/07/22 03:15:21;;;;;;;16.33;10.70;;;14.90;39.60;;;;;;5053547;28;20391;-73
2023/07/22 03:17:46;;;;;;;17.70;10.85;;;14.90;39.40;;;;;;5054049;28;20409;-73
2023/07/22 03:20:16;;;;;;;15.30;9.70;;;14.90;39.60;;;;;;5053566;28;20385;-72
2023/07/22 03:22:42;;;;;;;15.20;10.10;;;14.90;39.40;;;;;;5053313;28;20917;-73
2023/07/22 03:25:10;;;;;;;21.02;10.70;;;14.90;39.40;;;;;;5053519;28;20396;-73
2023/07/22 03:27:36;;;;;;;19.58;10.60;;;14.90;39.50;;;;;;5053334;28;20866;-73
2023/07/22 03:30:03;;;;;;;16.77;10.20;;;14.80;39.40;;;;;;5053514;28;20750;-73
2023/07/22 03:32:29;;;;;;;16.83;10.23;;;14.90;39.50;;;;;;5052900;28;20850;-73
2023/07/22 03:34:54;;;;;;;17.42;10.70;;;14.90;39.10;;;;;;5053284;28;20468;-73
2023/07/22 03:37:20;;;;;;;19.43;10.30;;;14.80;39.20;;;;;;5053144;28;20920;-73
2023/07/22 03:39:45;;;;;;;22.17;9.93;;;14.80;39.50;;;;;;5053361;28;20413;-72
2023/07/22 03:42:11;;;;;;;16.03;10.10;;;14.80;39.50;;;;;;5053005;28;20404;-72
2023/07/22 03:44:37;;;;;;;16.13;9.80;;;14.80;39.40;;;;;;5053278;28;20416;-72
2023/07/22 03:47:03;;;;;;;20.83;10.73;;;14.80;38.70;;;;;;5053030;28;20458;-74
2023/07/22 03:49:28;;;;;;;16.75;9.80;;;14.80;38.90;;;;;;5052718;28;20485;-73
2023/07/22 03:51:54;;;;;;;15.25;9.85;;;14.70;39.10;;;;;;5053576;28;20390;-72
2023/07/22 03:54:19;;;;;;;19.47;10.63;;;14.80;39.20;;;;;;5035287;28;20467;-72
2023/07/22 03:56:45;;;;;;;16.83;10.03;;;14.90;38.50;;;;;;5052670;28;20425;-72
2023/07/22 03:59:10;;;;;;;17.52;9.30;;;14.80;38.70;;;;;;5052803;28;20404;-73
2023/07/22 04:01:36;;;;;;;13.73;9.25;;;14.90;38.60;;;;;;5052643;28;20397;-73
2023/07/22 04:04:01;;;;;;;17.67;10.10;;;14.80;38.40;;;;;;5052756;28;20388;-73
2023/07/22 04:06:27;;;;;;;14.93;9.10;;;14.80;38.80;;;;;;5052648;28;20389;-73
2023/07/22 04:08:52;;;;;;;16.53;9.90;;;14.70;38.90;;;;;;5052669;28;20508;-73
2023/07/22 04:11:18;;;;;;;12.20;9.00;;;14.80;38.70;;;;;;5052123;28;20392;-73
2023/07/22 04:13:43;;;;;;;18.40;9.93;;;14.80;38.50;;;;;;5051836;28;20432;-73
2023/07/22 04:16:09;;;;;;;16.53;9.40;;;14.80;38.20;;;;;;5053535;28;20424;-73
2023/07/22 04:18:34;;;;;;;16.90;9.97;;;14.90;38.30;;;;;;5053348;28;20700;-73
2023/07/22 04:21:01;;;;;;;18.70;10.27;;;14.80;38.20;;;;;;5060520;28;20397;-73
2023/07/22 04:23:27;;;;;;;16.00;9.20;;;14.80;38.10;;;;;;5062884;28;20869;-73
2023/07/22 04:25:53;;;;;;;13.02;8.70;;;14.80;38.40;;;;;;5059468;28;20381;-73
2023/07/22 04:28:18;;;;;;;17.43;10.17;;;14.80;38.50;;;;;;5054124;28;20738;-73
2023/07/22 04:30:55;;;;;;;17.47;9.50;;;14.90;37.80;;;;;;5056063;28;20389;-73
2023/07/22 04:33:20;;;;;;;13.50;9.55;;;14.90;38.10;;;;;;5057230;28;20417;-75
2023/07/22 04:35:46;;;;;;;18.07;9.90;;;14.90;38.40;;;;;;5052503;28;20429;-72
2023/07/22 04:38:12;;;;;;;27.27;10.65;;;15.00;37.80;;;;;;5052254;28;20472;-72
2023/07/22 04:40:42;;;;;;;13.68;9.48;;;14.90;38.20;;;;;;5052008;28;20381;-73
2023/07/22 04:43:07;;;;;;;17.60;10.23;;;15.00;38.10;;;;;;5051528;28;20401;-72
2023/07/22 04:45:34;;;;;;;13.88;9.50;;;15.00;38.00;;;;;;5051819;28;20520;-73
2023/07/22 04:47:59;;;;;;;15.67;9.30;;;15.00;37.90;;;;;;5051697;28;20921;-73
2023/07/22 04:50:25;;;;;;;20.20;10.37;;;15.00;38.10;;;;;;5051849;28;20468;-73
2023/07/22 04:52:51;;;;;;;15.33;9.57;;;15.00;38.00;;;;;;5051456;28;20443;-72
2023/07/22 04:55:17;;;;;;;16.77;10.50;;;15.10;38.10;;;;;;5051622;28;20422;-72
2023/07/22 04:57:44;;;;;;;19.10;9.80;;;15.20;37.80;;;;;;5051809;28;20758;-74
2023/07/22 05:00:14;;;;;;;19.08;11.25;;;15.30;37.30;;;;;;5051542;28;20393;-72
2023/07/22 05:02:40;;;;;;;16.50;10.38;;;15.50;37.00;;;;;;5051290;28;20502;-72
2023/07/22 05:05:06;;;;;;;17.02;11.15;;;15.50;36.60;;;;;;5051434;28;20410;-71
2023/07/22 05:07:32;;;;;;;22.02;11.07;;;15.50;36.60;;;;;;5051316;28;20468;-73
2023/07/22 05:09:58;;;;;;;17.20;10.73;;;15.50;36.60;;;;;;5051478;28;20409;-73
2023/07/22 05:12:23;;;;;;;18.87;11.30;;;15.60;36.60;;;;;;5051131;28;20416;-72
2023/07/22 05:14:49;;;;;;;19.45;10.80;;;15.60;36.70;;;;;;5051513;28;20410;-74
2023/07/22 05:17:15;;;;;;;18.38;11.40;;;15.70;36.30;;;;;;5050956;28;20420;-73
2023/07/22 05:19:41;;;;;;;20.48;11.35;;;15.70;36.40;;;;;;5051210;28;20401;-73
2023/07/22 05:22:07;;;;;;;21.60;10.88;;;15.70;36.40;;;;;;5050944;28;20417;-73
2023/07/22 05:24:32;;;;;;;18.35;11.20;;;15.70;36.30;;;;;;5050259;28;20382;-73
2023/07/22 05:26:58;;;;;;;17.50;11.52;;;15.70;36.50;;;;;;5051461;28;20373;-73
2023/07/22 05:29:24;;;;;;;19.20;12.05;;;15.80;36.10;;;;;;5051442;28;20377;-73
2023/07/22 05:31:49;;;;;;;21.17;11.57;;;15.80;36.00;;;;;;5051222;28;20392;-73
2023/07/22 05:34:15;;;;;;;19.17;11.10;;;15.80;36.70;;;;;;5052961;28;20796;-73
2023/07/22 05:36:40;;;;;;;19.90;10.53;;;15.70;37.10;;;;;;5052235;28;20382;-72
2023/07/22 05:39:06;;;;;;;23.40;11.38;;;15.80;36.10;;;;;;5051134;28;20378;-74
2023/07/22 05:41:34;;;;;;;19.00;11.05;;;15.90;36.20;;;;;;5050786;28;20432;-73
2023/07/22 05:44:00;;;;;;;21.57;11.73;;;16.00;36.30;;;;;;5051481;28;20395;-73
2023/07/22 05:46:26;;;;;;;20.30;12.33;;;16.10;35.20;;;;;;5050947;28;20801;-74
2023/07/22 05:48:51;;;;;;;22.43;12.73;;;16.40;34.80;;;;;;5050907;28;20546;-74
2023/07/22 05:51:17;;;;;;;25.02;15.23;;;16.60;34.40;;;;;;5050864;28;20387;-73
2023/07/22 05:53:43;;;;;;;28.27;16.90;;;16.90;33.10;;;;;;5051222;28;20870;-72
2023/07/22 05:56:09;;;;;;;28.30;16.95;;;17.00;32.50;;;;;;5050556;28;20389;-73
2023/07/22 05:58:34;;;;;;;27.98;17.33;;;17.10;32.40;;;;;;5050804;28;20389;-73
2023/07/22 06:01:00;;;;;;;30.95;17.42;;;17.30;31.90;;;;;;5053294;28;20780;-73
2023/07/22 06:03:26;;;;;;;28.10;16.97;;;17.30;31.50;;;;;;5052383;28;20382;-74
2023/07/22 06:05:51;;;;;;;22.27;13.40;;;17.40;31.40;;;;;;5051776;28;20484;-74
2023/07/22 06:08:17;;;;;;;22.35;13.27;;;17.40;29.70;;;;;;5053540;28;20381;-73
2023/07/22 06:10:43;;;;;;;21.42;12.60;;;17.40;29.30;;;;;;5053771;28;20884;-73
2023/07/22 06:13:08;;;;;;;18.80;11.20;;;17.60;29.70;;;;;;5052450;28;20387;-73
2023/07/22 06:15:34;;;;;;;16.27;10.47;;;17.90;28.00;;;;;;5053807;28;20464;-73
2023/07/22 06:18:00;;;;;;;16.33;10.00;;;18.10;26.70;;;;;;5050546;28;20463;-73
2023/07/22 06:20:26;;;;;;;18.30;9.20;;;18.20;25.60;;;;;;5050402;28;20492;-72
2023/07/22 06:22:52;;;;;;;15.82;8.70;;;18.40;25.00;;;;;;5050425;28;20397;-72
2023/07/22 06:25:17;;;;;;;14.50;9.18;;;18.70;23.40;;;;;;5050310;28;20396;-73
2023/07/22 06:27:43;;;;;;;18.70;9.47;;;18.80;23.10;;;;;;5049982;28;20381;-73
2023/07/22 06:30:09;;;;;;;14.45;8.55;;;18.80;23.30;;;;;;5050775;28;20403;-73
2023/07/22 06:32:37;;;;;;;13.93;8.38;;;19.00;22.50;;;;;;5050438;28;20450;-73
2023/07/22 06:35:03;;;;;;;14.23;8.60;;;19.20;21.70;;;;;;5050260;28;20386;-72
2023/07/22 06:37:29;;;;;;;14.70;9.02;;;19.10;22.00;;;;;;5053420;28;20928;-73
2023/07/22 06:39:55;;;;;;;14.40;8.03;;;19.10;22.30;;;;;;5054058;28;20476;-74
2023/07/22 06:42:20;;;;;;;16.50;8.77;;;19.30;22.30;;;;;;5053862;28;20531;-74
2023/07/22 06:44:46;;;;;;;21.77;9.80;;;19.10;21.90;;;;;;5053995;28;20397;-74
2023/07/22 06:47:11;;;;;;;14.43;8.97;;;19.20;21.70;;;;;;5053931;28;20377;-73
2023/07/22 06:49:37;;;;;;;14.88;9.13;;;19.40;21.10;;;;;;5054232;28;20392;-72
2023/07/22 06:52:03;;;;;;;15.88;9.27;;;19.60;20.50;;;;;;5053759;28;20448;-73
2023/07/22 06:54:29;;;;;;;16.77;8.75;;;19.60;20.80;;;;;;5053869;28;20466;-74
2023/07/22 06:56:54;;;;;;;15.13;9.20;;;19.60;20.60;;;;;;5035892;28;20385;-73
2023/07/22 06:59:20;;;;;;;11.10;8.60;;;19.60;20.50;;;;;;5053829;28;20401;-73
2023/07/22 07:01:46;;;;;;;15.53;8.70;;;19.70;21.10;;;;;;5053600;28;20435;-74
2023/07/22 07:04:11;;;;;;;20.17;9.20;;;19.80;20.80;;;;;;5054139;28;20400;-73
2023/07/22 07:06:38;;;;;;;16.33;9.47;;;20.00;19.90;;;;;;5053960;28;20385;-74
2023/07/22 07:09:05;;;;;;;13.85;9.23;;;19.90;20.20;;;;;;5054029;28;20715;-73
2023/07/22 07:11:31;;;;;;;15.10;8.98;;;19.90;20.50;;;;;;5053166;28;20393;-73
2023/07/22 07:13:57;;;;;;;15.20;8.77;;;19.90;20.60;;;;;;5053515;28;20453;-73
2023/07/22 07:16:25;;;;;;;19.93;9.47;;;20.00;20.00;;;;;;5053589;28;20794;-74
2023/07/22 07:18:51;;;;;;;18.57;9.60;;;20.00;20.80;;;;;;5053610;28;20402;-74
2023/07/22 07:21:17;;;;;;;13.87;9.20;;;19.90;21.10;;;;;;5053334;28;20889;-74
2023/07/22 07:23:44;;;;;;;14.38;9.23;;;19.80;20.60;;;;;;5053665;28;20845;-74
2023/07/22 07:26:09;;;;;;;17.53;9.93;;;19.70;20.90;;;;;;5053358;28;20409;-74
2023/07/22 07:28:35;;;;;;;15.07;9.43;;;19.70;21.50;;;;;;5053237;28;20912;-74
2023/07/22 07:31:00;;;;;;;17.25;9.80;;;19.90;21.40;;;;;;5052798;28;20854;-74
2023/07/22 07:33:26;;;;;;;16.60;8.77;;;20.20;20.40;;;;;;5052959;28;20770;-74
2023/07/22 07:35:52;;;;;;;14.60;9.03;;;20.40;19.90;;;;;;5055922;28;20414;-74
2023/07/22 07:38:17;;;;;;;18.40;9.32;;;20.60;19.50;;;;;;5052849;28;20423;-73
2023/07/22 07:40:43;;;;;;;16.23;8.53;;;20.80;19.40;;;;;;5053123;28;20384;-73
2023/07/22 07:43:08;;;;;;;19.23;9.60;;;20.90;19.00;;;;;;5052580;28;20401;-73
2023/07/22 07:45:38;;;;;;;17.75;9.18;;;20.80;18.80;;;;;;5052929;28;20454;-73
2023/07/22 07:48:04;;;;;;;14.02;9.02;;;20.80;19.10;;;;;;5051529;28;20377;-73
2023/07/22 07:50:29;;;;;;;20.40;9.35;;;21.10;18.90;;;;;;5052585;28;20421;-73
2023/07/22 07:52:55;;;;;;;17.57;9.40;;;21.30;18.20;;;;;;5052472;28;20424;-73
2023/07/22 07:55:20;;;;;;;17.63;9.40;;;21.40;17.80;;;;;;5052655;28;20386;-73
2023/07/22 07:57:46;;;;;;;13.95;9.00;;;21.30;18.00;;;;;;5052512;28;20400;-73
2023/07/22 08:00:12;;;;;;;13.50;8.67;;;21.30;17.90;;;;;;5052944;28;20402;-73
2023/07/22 08:02:37;;;;;;;16.08;8.90;;;21.70;17.90;;;;;;5052590;28;20492;-73
2023/07/22 08:05:03;;;;;;;15.70;9.00;;;21.80;17.30;;;;;;5052568;28;20484;-74
2023/07/22 08:07:29;;;;;;;16.50;9.30;;;21.80;17.30;;;;;;5052144;28;20385;-73
2023/07/22 08:09:55;;;;;;;14.70;9.10;;;21.90;17.00;;;;;;5052461;28;20377;-73
2023/07/22 08:12:20;;;;;;;15.88;9.50;;;22.10;17.00;;;;;;5052300;28;20901;-74
2023/07/22 08:14:46;;;;;;;18.13;9.10;;;21.90;17.10;;;;;;5034809;28;20394;-74
2023/07/22 08:17:12;;;;;;;20.00;9.50;;;21.80;17.40;;;;;;5053840;28;20401;-74
2023/07/22 08:19:37;;;;;;;15.10;9.27;;;21.90;17.70;;;;;;5053707;28;20797;-74
2023/07/22 08:22:03;;;;;;;19.52;9.80;;;22.10;17.20;;;;;;5052348;28;20480;-74
2023/07/22 08:24:29;;;;;;;19.23;9.95;;;21.80;17.40;;;;;;5052254;28;20882;-73
2023/07/22 08:26:54;;;;;;;18.13;9.70;;;21.60;17.80;;;;;;5052264;28;20389;-73
2023/07/22 08:29:20;;;;;;;15.07;9.37;;;21.40;17.90;;;;;;5052309;28;20797;-73
2023/07/22 08:31:45;;;;;;;18.23;9.70;;;21.30;17.90;;;;;;5051954;28;20413;-74
2023/07/22 08:34:11;;;;;;;16.70;9.67;;;21.20;18.20;;;;;;5051712;28;20393;-74
2023/07/22 08:36:36;;;;;;;17.08;9.55;;;21.30;17.80;;;;;;5052370;28;20454;-73
2023/07/22 08:39:03;;;;;;;15.67;8.90;;;21.30;18.00;;;;;;5054165;28;20389;-73
2023/07/22 08:41:29;;;;;;;12.75;9.20;;;21.50;17.70;;;;;;5034723;28;20402;-72
2023/07/22 08:43:59;;;;;;;13.50;9.02;;;21.80;16.50;;;;;;5053314;28;20417;-72
2023/07/22 08:46:30;;;;;;;13.50;8.27;;;22.10;16.80;;;;;;5051967;28;20382;-73
2023/07/22 08:48:58;;;;;;;14.70;9.00;;;22.10;16.30;;;;;;5052514;28;20373;-73
2023/07/22 08:51:28;;;;;;;13.05;8.10;;;22.00;16.40;;;;;;5052570;28;20377;-74
2023/07/22 08:53:56;;;;;;;15.15;8.70;;;22.10;16.60;;;;;;5052241;28;20386;-73
2023/07/22 08:56:25;;;;;;;14.40;7.95;;;22.20;16.50;;;;;;5052211;28;20393;-74
2023/07/22 08:58:51;;;;;;;13.40;7.80;;;22.50;15.90;;;;;;5052875;28;20523;-74
2023/07/22 09:01:17;;;;;;;12.20;7.40;;;22.60;15.40;;;;;;5052170;28;20397;-74
2023/07/22 09:03:43;;;;;;;15.48;7.43;;;22.50;14.80;;;;;;5051425;28;20746;-74
2023/07/22 09:06:11;;;;;;;14.20;7.78;;;22.20;15.50;;;;;;5050900;28;21570;-75
2023/07/22 09:08:38;;;;;;;13.77;7.60;;;22.10;16.10;;;;;;5051468;28;20401;-74
2023/07/22 09:11:04;;;;;;;12.52;7.35;;;22.10;15.80;;;;;;5051302;28;20385;-74
2023/07/22 09:13:30;;;;;;;13.13;7.70;;;22.20;15.80;;;;;;5051344;28;20818;-74
2023/07/22 09:15:59;;;;;;;11.85;7.25;;;22.20;15.60;;;;;;5051449;28;20377;-74
2023/07/22 09:18:25;;;;;;;11.50;7.20;;;22.30;15.60;;;;;;5051069;22;20450;-73
2023/07/22 09:20:51;;;;;;;10.73;7.20;;;22.50;15.70;;;;;;5031528;28;20393;-73
2023/07/22 09:23:17;;;;;;;16.60;7.10;;;22.50;15.60;;;;;;5031334;28;20774;-72
2023/07/22 09:25:42;;;;;;;8.70;6.27;;;22.70;15.30;;;;;;5031455;28;20445;-73
2023/07/22 09:28:09;;;;;;;15.50;7.20;;;22.90;14.20;;;;;;5013480;28;20449;-73
2023/07/22 09:30:38;;;;;;;8.80;6.03;;;23.00;13.60;;;;;;5031428;28;20757;-72
2023/07/22 09:33:05;;;;;;;10.98;5.90;;;23.00;13.10;;;;;;5031419;28;20398;-73
2023/07/22 09:35:45;;;;;;;9.73;5.63;;;23.20;12.80;;;;;;5013679;28;20399;-74
2023/07/22 09:38:11;;;;;;;9.70;5.90;;;23.10;12.30;;;;;;5031713;28;20942;-74
2023/07/22 09:40:40;;;;;;;10.10;6.70;;;23.30;12.50;;;;;;5031721;28;20395;-72
2023/07/22 09:43:08;;;;;;;10.68;6.60;;;23.40;12.70;;;;;;5030949;28;20828;-73
2023/07/22 09:45:35;;;;;;;13.15;6.70;;;23.60;12.80;;;;;;5031093;28;20379;-74
2023/07/22 09:48:00;;;;;;;9.77;5.73;;;23.80;12.30;;;;;;5031181;28;20441;-73
2023/07/22 09:50:27;;;;;;;7.10;5.60;;;23.90;12.00;;;;;;5030829;28;20748;-73
2023/07/22 09:52:54;;;;;;;9.75;5.35;;;23.60;12.30;;;;;;5030669;28;20391;-73
2023/07/22 09:55:30;;;;;;;8.18;5.38;;;23.40;12.50;;;;;;5030714;28;20419;-74
2023/07/22 09:57:58;;;;;;;8.15;5.05;;;23.10;12.60;;;;;;5030634;28;20383;-72
2023/07/22 10:00:27;;;;;;;8.45;4.43;;;22.80;13.10;;;;;;5030707;28;20387;-73
2023/07/22 10:02:55;;;;;;;11.50;4.90;;;22.80;13.30;;;;;;5030705;28;20414;-73
2023/07/22 10:05:22;;;;;;;7.88;4.60;;;22.70;13.50;;;;;;5030882;28;20386;-73
2023/07/22 10:07:50;;;;;;;7.05;4.00;;;22.80;13.10;;;;;;5014542;28;20464;-73
2023/07/22 10:10:21;;;;;;;10.10;4.20;;;22.50;13.30;;;;;;5030853;28;20386;-73
2023/07/22 10:12:47;;;;;;;4.80;4.00;;;22.30;13.60;;;;;;5030519;28;20387;-74
2023/07/22 10:15:15;;;;;;;7.73;4.10;;;22.10;14.30;;;;;;5031034;28;20379;-74
2023/07/22 10:17:42;;;;;;;10.73;4.50;;;22.20;14.90;;;;;;5031093;28;20443;-73
2023/07/22 10:20:14;;;;;;;10.77;4.30;;;22.50;14.50;;;;;;5031125;28;20458;-74
2023/07/22 10:22:42;;;;;;;5.93;4.15;;;22.60;14.10;;;;;;5030709;28;20484;-75
2023/07/22 10:25:08;;;;;;;7.60;4.00;;;22.80;13.00;;;;;;5031233;28;20398;-72
2023/07/22 10:27:41;;;;;;;5.72;3.90;;;22.70;13.40;;;;;;5031371;28;20717;-74
2023/07/22 10:30:08;;;;;;;8.17;4.07;;;22.80;13.10;;;;;;5031489;28;20375;-73
2023/07/22 10:32:39;;;;;;;7.63;4.30;;;22.80;13.00;;;;;;5031782;28;20772;-73
2023/07/22 10:35:10;;;;;;;10.90;4.30;;;22.70;12.60;;;;;;5032202;28;20763;-74
2023/07/22 10:37:37;;;;;;;9.80;4.10;;;22.60;12.90;;;;;;5031861;28;20603;-73
2023/07/22 10:40:24;;;;;;;5.03;3.20;;;22.60;13.70;;;;;;5031902;28;20387;-73
2023/07/22 10:43:06;;;;;;;6.85;3.40;;;22.50;11.80;;;;;;5030728;28;20403;-74
2023/07/22 10:45:33;;;;;;;7.28;3.80;;;22.20;12.30;;;;;;5032160;28;20390;-74
2023/07/22 10:48:12;;;;;;;4.00;3.22;;;22.10;12.90;;;;;;5035552;28;20407;-74
2023/07/22 10:50:39;;;;;;;7.00;3.60;;;22.00;13.60;;;;;;5033602;28;20372;-74
2023/07/22 10:53:04;;;;;;;4.53;3.60;;;22.10;13.60;;;;;;5032249;28;20383;-74
2023/07/22 10:55:30;;;;;;;7.50;3.70;;;22.20;14.10;;;;;;5014467;28;20395;-72
2023/07/22 10:58:05;;;;;;;6.22;3.70;;;22.50;13.60;;;;;;5030595;28;20391;-73
2023/07/22 11:00:30;;;;;;;5.88;3.35;;;22.70;13.20;;;;;;5030864;28;20444;-74
2023/07/22 11:03:10;;;;;;;4.18;2.88;;;22.80;12.00;;;;;;5030017;28;20468;-73
2023/07/22 11:05:50;;;;;;;6.07;3.10;;;22.70;12.10;;;;;;5030191;28;20379;-73
2023/07/22 11:08:16;;;;;;;4.60;3.20;;;22.80;12.10;;;;;;5030310;28;20744;-74
2023/07/22 11:11:02;;;;;;;4.97;2.87;;;22.90;12.00;;;;;;5012447;28;20395;-72
2023/07/22 11:13:28;;;;;;;4.70;3.30;;;23.00;11.40;;;;;;5011571;28;20478;-72
2023/07/22 11:15:59;;;;;;;6.53;3.00;;;23.20;11.30;;;;;;5030097;28;20790;-73
2023/07/22 11:18:36;;;;;;;7.10;2.80;;;23.40;10.50;;;;;;5011891;28;20476;-73
2023/07/22 11:21:06;;;;;;;3.95;2.80;;;23.60;9.80;;;;;;5029922;28;20387;-73
2023/07/22 11:23:34;;;;;;;5.50;2.80;;;23.80;9.40;;;;;;5032907;28;20441;-73
2023/07/22 11:26:01;;;;;;;4.22;2.47;;;24.10;8.80;;;;;;5033040;28;20398;-74
2023/07/22 11:28:27;;;;;;;3.30;2.60;;;24.20;8.40;;;;;;5032856;28;20476;-73
2023/07/22 11:30:53;;;;;;;5.73;2.20;;;24.40;7.90;;;;;;5033725;28;20418;-73
2023/07/22 11:33:19;;;;;;;5.00;2.58;;;24.40;7.10;;;;;;5031909;28;20431;-73
2023/07/22 11:35:44;;;;;;;5.05;2.35;;;24.40;6.90;;;;;;5031122;28;20410;-74
2023/07/22 11:38:12;;;;;;;4.40;2.80;;;24.40;7.60;;;;;;5031088;28;20390;-74
2023/07/22 11:40:38;;;;;;;5.10;2.50;;;24.50;7.60;;;;;;5031154;28;20767;-73
2023/07/22 11:43:04;;;;;;;6.88;2.60;;;24.40;7.70;;;;;;5030810;28;20701;-73
2023/07/22 11:45:30;;;;;;;5.40;2.90;;;24.30;8.50;;;;;;5030936;28;20473;-73
2023/07/22 11:47:56;;;;;;;4.47;2.58;;;24.20;8.90;;;;;;5011496;28;20822;-73
2023/07/22 11:50:33;;;;;;;5.80;2.55;;;23.80;8.80;;;;;;5012310;28;20423;-73
2023/07/22 11:52:58;;;;;;;5.30;3.10;;;23.60;9.70;;;;;;5028696;28;20399;-73
2023/07/22 11:55:24;;;;;;;6.30;3.20;;;23.70;10.60;;;;;;5030426;28;20438;-73
2023/07/22 11:57:54;;;;;;;4.15;3.10;;;24.00;9.10;;;;;;5030640;28;20458;-72
2023/07/22 12:00:20;;;;;;;4.20;3.20;;;24.20;8.70;;;;;;5030415;28;20391;-72
2023/07/22 12:02:45;;;;;;;5.80;3.27;;;24.50;8.80;;;;;;5030673;28;20467;-72
2023/07/22 12:05:12;;;;;;;7.30;3.40;;;24.60;9.00;;;;;;5030528;28;20811;-74
2023/07/22 12:07:39;;;;;;;4.90;3.35;;;24.70;8.90;;;;;;5030417;28;20405;-72
2023/07/22 12:10:09;;;;;;;9.93;4.95;;;24.90;8.60;;;;;;5030295;28;20399;-73
2023/07/22 12:12:44;;;;;;;5.95;3.33;;;25.20;8.50;;;;;;5030228;28;21189;-72
2023/07/22 12:15:15;;;;;;;8.65;3.75;;;25.50;7.00;;;;;;5030313;28;20391;-72
2023/07/22 12:17:50;;;;;;;3.83;3.33;;;25.80;6.80;;;;;;5028414;28;20997;-71
2023/07/22 12:20:16;;;;;;;6.32;3.65;;;25.60;7.50;;;;;;5032103;28;20411;-72
2023/07/22 12:22:43;;;;;;;6.60;3.60;;;25.70;8.30;;;;;;5029516;28;20399;-72
2023/07/22 12:25:08;;;;;;;5.20;3.50;;;25.50;6.80;;;;;;5030360;28;20410;-71
2023/07/22 12:27:36;;;;;;;6.27;3.73;;;25.10;7.20;;;;;;5033639;28;20399;-72
2023/07/22 12:30:03;;;;;;;5.70;3.60;;;24.90;7.60;;;;;;5034174;28;20389;-72
2023/07/22 12:32:29;;;;;;;10.43;4.03;;;25.30;7.70;;;;;;5042455;28;20379;-72